createdAt,value
2019-03-03T00:00:02.259Z,16.48
2019-03-03T00:02:30.402Z,17.53
2019-03-03T00:04:58.646Z,11.20
2019-03-03T00:07:26.896Z,15.50
2019-03-03T00:09:55.812Z,15.13
2019-03-03T00:12:23.995Z,17.93
2019-03-03T00:14:52.688Z,11.57
2019-03-03T00:17:20.811Z,11.90
2019-03-03T00:19:48.949Z,10.30
2019-03-03T00:22:17.680Z,10.60
2019-03-03T00:24:45.816Z,13.87
2019-03-03T00:27:13.922Z,10.90
2019-03-03T00:29:42.056Z,12.87
2019-03-03T00:32:10.233Z,12.80
2019-03-03T00:34:38.419Z,11.20
2019-03-03T00:37:20.365Z,9.95
2019-03-03T00:39:59.124Z,9.17
2019-03-03T00:42:28.951Z,16.90
2019-03-03T00:45:01.558Z,13.30
2019-03-03T00:47:36.771Z,11.33
2019-03-03T00:50:26.716Z,11.13
2019-03-03T00:52:56.479Z,31.30
2019-03-03T00:55:35.261Z,12.47
2019-03-03T00:58:05.141Z,9.47
2019-03-03T01:00:35.111Z,12.90
2019-03-03T01:03:04.939Z,10.88
2019-03-03T01:05:40.711Z,20.03
2019-03-03T01:08:16.321Z,15.90
2019-03-03T01:10:55.159Z,11.78
2019-03-03T01:13:36.837Z,11.17
2019-03-03T01:16:23.277Z,11.20
2019-03-03T01:18:53.034Z,11.07
2019-03-03T01:21:31.694Z,12.97
2019-03-03T01:24:01.535Z,13.73
2019-03-03T01:26:29.724Z,9.70
2019-03-03T01:28:57.852Z,7.47
2019-03-03T01:31:27.613Z,10.67
2019-03-03T01:33:55.734Z,10.95
2019-03-03T01:36:23.928Z,9.33
2019-03-03T01:38:52.113Z,10.87
2019-03-03T01:41:20.239Z,10.90
2019-03-03T01:43:48.354Z,17.93
2019-03-03T01:46:16.611Z,10.33
2019-03-03T01:48:44.803Z,15.03
2019-03-03T01:51:12.961Z,9.27
2019-03-03T01:54:17.662Z,14.83
2019-03-03T01:56:45.797Z,10.27
2019-03-03T01:59:13.920Z,10.47
2019-03-03T02:01:42.045Z,11.27
2019-03-03T02:04:10.183Z,9.87
2019-03-03T02:06:38.293Z,8.30
2019-03-03T02:09:07.959Z,8.87
2019-03-03T02:11:36.098Z,10.38
2019-03-03T02:14:04.292Z,9.63
2019-03-03T02:16:32.595Z,6.70
2019-03-03T02:19:00.719Z,11.43
2019-03-03T02:21:28.911Z,10.33
2019-03-03T02:23:57.088Z,9.20
2019-03-03T02:26:25.388Z,12.87
2019-03-03T02:28:53.677Z,10.80
2019-03-03T02:31:22.533Z,6.13
2019-03-03T02:33:50.861Z,6.43
2019-03-03T02:36:18.974Z,8.40
2019-03-03T02:38:47.148Z,17.03
2019-03-03T02:41:15.290Z,10.57
2019-03-03T02:44:17.138Z,9.80
2019-03-03T02:46:45.287Z,8.63
2019-03-03T02:49:13.451Z,12.20
2019-03-03T02:51:41.580Z,9.27
2019-03-03T02:54:09.852Z,8.87
2019-03-03T02:56:37.969Z,10.25
2019-03-03T02:59:06.069Z,11.27
2019-03-03T03:01:35.821Z,7.40
2019-03-03T03:04:04.088Z,12.40
2019-03-03T03:06:33.870Z,11.83
2019-03-03T03:09:15.610Z,8.80
2019-03-03T03:11:51.399Z,9.70
2019-03-03T03:14:39.302Z,10.87
2019-03-03T03:17:25.629Z,11.37
2019-03-03T03:19:58.147Z,11.03
2019-03-03T03:22:39.822Z,11.03
2019-03-03T03:25:12.344Z,10.90
2019-03-03T03:27:58.518Z,12.33
2019-03-03T03:30:31.539Z,12.60
2019-03-03T03:33:04.106Z,7.90
2019-03-03T03:35:36.787Z,8.73
2019-03-03T03:38:18.932Z,11.30
2019-03-03T03:40:54.987Z,12.93
2019-03-03T03:43:27.437Z,11.03
2019-03-03T03:46:12.479Z,11.67
2019-03-03T03:48:51.205Z,12.87
2019-03-03T03:51:39.419Z,7.43
2019-03-03T03:54:21.566Z,17.17
2019-03-03T03:57:00.209Z,15.72
2019-03-03T03:59:35.782Z,15.20
2019-03-03T04:02:20.776Z,14.23
2019-03-03T04:04:53.234Z,12.97
2019-03-03T04:07:23.066Z,13.83
2019-03-03T04:09:58.821Z,12.33
2019-03-03T04:12:34.468Z,13.77
2019-03-03T04:15:13.103Z,15.95
2019-03-03T04:17:45.411Z,15.83
2019-03-03T04:20:15.275Z,15.13
2019-03-03T04:22:45.025Z,15.37
2019-03-03T04:25:23.811Z,19.63
2019-03-03T04:27:53.653Z,24.57
2019-03-03T04:30:35.402Z,20.93
2019-03-03T04:33:05.274Z,22.70
2019-03-03T04:35:35.225Z,12.27
2019-03-03T04:38:16.995Z,19.07
2019-03-03T04:40:49.911Z,21.07
2019-03-03T04:43:28.728Z,14.43
2019-03-03T04:46:01.458Z,21.00
2019-03-03T04:48:37.022Z,18.87
2019-03-03T04:51:19.216Z,19.63
2019-03-03T04:53:51.970Z,20.17
2019-03-03T04:56:21.814Z,17.10
2019-03-03T04:58:54.506Z,15.40
2019-03-03T05:01:30.498Z,16.77
2019-03-03T05:04:16.912Z,18.47
2019-03-03T05:06:55.605Z,16.97
2019-03-03T05:09:25.361Z,18.17
2019-03-03T05:12:22.003Z,20.97
2019-03-03T05:14:51.787Z,16.33
2019-03-03T05:17:33.801Z,18.47
2019-03-03T05:20:15.818Z,11.57
2019-03-03T05:22:44.009Z,11.90
2019-03-03T05:25:12.175Z,17.07
2019-03-03T05:27:40.312Z,22.48
2019-03-03T05:30:12.137Z,11.83
2019-03-03T05:32:40.266Z,21.90
2019-03-03T05:35:08.965Z,20.15
2019-03-03T05:37:37.287Z,29.43
2019-03-03T05:40:06.396Z,16.63
2019-03-03T05:42:34.519Z,14.57
2019-03-03T05:45:02.821Z,18.80
2019-03-03T05:47:30.930Z,21.07
2019-03-03T05:49:59.054Z,24.50
2019-03-03T05:52:27.194Z,16.43
2019-03-03T05:54:55.312Z,15.67
2019-03-03T05:57:23.450Z,21.33
2019-03-03T05:59:51.605Z,20.87
2019-03-03T06:02:19.733Z,20.47
2019-03-03T06:04:48.366Z,25.03
2019-03-03T06:07:16.586Z,22.23
2019-03-03T06:09:44.729Z,22.23
2019-03-03T06:12:12.842Z,15.93
2019-03-03T06:14:40.997Z,14.23
2019-03-03T06:17:10.645Z,15.40
2019-03-03T06:19:38.789Z,18.43
2019-03-03T06:22:07.690Z,22.80
2019-03-03T06:24:35.915Z,20.32
2019-03-03T06:27:04.153Z,18.77
2019-03-03T06:29:32.357Z,15.15
2019-03-03T06:32:00.567Z,23.50
2019-03-03T06:34:28.706Z,18.73
2019-03-03T06:36:56.859Z,18.30
2019-03-03T06:39:24.962Z,15.67
2019-03-03T06:41:53.083Z,13.03
2019-03-03T06:44:21.231Z,11.80
2019-03-03T06:46:49.343Z,12.50
2019-03-03T06:49:17.466Z,18.17
2019-03-03T06:51:45.710Z,15.33
2019-03-03T06:54:13.884Z,16.80
2019-03-03T06:56:42.007Z,10.70
2019-03-03T06:59:10.121Z,12.33
2019-03-03T07:01:38.241Z,12.30
2019-03-03T07:04:07.184Z,17.67
2019-03-03T07:06:35.298Z,20.60
2019-03-03T07:09:04.472Z,16.40
2019-03-03T07:11:32.583Z,10.17
2019-03-03T07:14:00.723Z,8.90
2019-03-03T07:16:29.014Z,17.20
2019-03-03T07:18:57.141Z,16.53
2019-03-03T07:21:25.266Z,18.37
2019-03-03T07:23:53.549Z,18.52
2019-03-03T07:26:21.654Z,13.60
2019-03-03T07:28:49.779Z,15.30
2019-03-03T07:31:17.954Z,14.87
2019-03-03T07:33:46.914Z,9.07
2019-03-03T07:36:15.051Z,15.90
2019-03-03T07:38:43.317Z,10.13
2019-03-03T07:41:11.433Z,12.70
2019-03-03T07:43:39.570Z,13.43
2019-03-03T07:46:07.708Z,10.63
2019-03-03T07:48:35.875Z,14.20
2019-03-03T07:51:04.310Z,11.38
2019-03-03T07:53:32.464Z,12.67
2019-03-03T07:56:00.648Z,9.80
2019-03-03T07:58:28.793Z,25.93
2019-03-03T08:00:56.975Z,14.20
2019-03-03T08:03:25.110Z,8.23
2019-03-03T08:05:53.227Z,10.33
2019-03-03T08:08:21.369Z,14.03
2019-03-03T08:10:49.544Z,11.50
2019-03-03T08:13:17.759Z,9.83
2019-03-03T08:15:45.959Z,14.65
2019-03-03T08:18:14.242Z,11.53
2019-03-03T08:20:42.520Z,10.48
2019-03-03T08:23:10.699Z,10.67
2019-03-03T08:25:38.842Z,12.10
2019-03-03T08:28:06.975Z,12.73
2019-03-03T08:30:35.886Z,10.70
2019-03-03T08:33:04.728Z,13.40
2019-03-03T08:35:32.913Z,17.73
2019-03-03T08:38:01.131Z,10.78
2019-03-03T08:40:29.306Z,10.23
2019-03-03T08:43:11.065Z,19.15
2019-03-03T08:45:46.934Z,13.57
2019-03-03T08:48:25.935Z,14.43
2019-03-03T08:50:58.530Z,14.13
2019-03-03T08:53:30.997Z,8.58
2019-03-03T08:56:17.145Z,11.83
2019-03-03T08:59:05.401Z,18.37
2019-03-03T09:01:41.074Z,15.70
2019-03-03T09:04:11.666Z,14.00
2019-03-03T09:06:41.511Z,10.30
2019-03-03T09:09:20.640Z,9.47
2019-03-03T09:12:02.814Z,9.53
2019-03-03T09:14:32.573Z,9.70
2019-03-03T09:17:05.191Z,11.73
2019-03-03T09:19:51.327Z,11.50
2019-03-03T09:22:21.129Z,11.10
2019-03-03T09:24:50.906Z,10.40
2019-03-03T09:27:30.292Z,10.53
2019-03-03T09:30:00.114Z,13.57
2019-03-03T09:32:36.495Z,11.37
2019-03-03T09:35:09.214Z,11.73
2019-03-03T09:37:51.531Z,17.93
2019-03-03T09:40:21.351Z,10.10
2019-03-03T09:43:07.737Z,9.70
2019-03-03T09:45:39.129Z,7.57
2019-03-03T09:48:17.776Z,11.48
2019-03-03T09:51:03.957Z,10.27
2019-03-03T09:53:33.777Z,11.77
2019-03-03T09:56:06.351Z,6.83
2019-03-03T09:58:51.296Z,10.50
2019-03-03T10:01:37.822Z,7.63
2019-03-03T10:04:17.003Z,11.10
2019-03-03T10:07:03.618Z,9.27
2019-03-03T10:09:49.441Z,15.93
2019-03-03T10:12:37.736Z,9.00
2019-03-03T10:15:12.147Z,5.50
2019-03-03T10:17:48.225Z,13.53
2019-03-03T10:20:18.043Z,7.60
2019-03-03T10:22:50.867Z,8.87
2019-03-03T10:25:30.030Z,6.33
2019-03-03T10:28:02.626Z,7.73
2019-03-03T10:30:38.513Z,8.77
2019-03-03T10:33:08.364Z,8.20
2019-03-03T10:35:40.531Z,5.77
2019-03-03T10:38:18.409Z,5.23
2019-03-03T10:40:48.275Z,8.80
2019-03-03T10:43:21.141Z,5.20
2019-03-03T10:46:09.538Z,7.80
2019-03-03T10:48:45.009Z,8.93
2019-03-03T10:51:20.594Z,5.37
2019-03-03T10:53:50.469Z,9.87
2019-03-03T10:56:23.056Z,10.07
2019-03-03T10:58:52.926Z,7.37
2019-03-03T11:01:29.058Z,3.33
2019-03-03T11:04:15.577Z,4.80
2019-03-03T11:06:49.136Z,3.42
2019-03-03T11:09:19.721Z,5.10
2019-03-03T11:11:52.255Z,4.63
2019-03-03T11:14:30.603Z,5.43
2019-03-03T11:17:03.203Z,3.60
2019-03-03T11:19:32.960Z,2.98
2019-03-03T11:22:09.200Z,5.17
2019-03-03T11:24:51.191Z,5.50
2019-03-03T11:27:23.927Z,4.55
2019-03-03T11:30:08.671Z,4.20
2019-03-03T11:32:38.543Z,3.70
2019-03-03T11:35:23.628Z,2.23
2019-03-03T11:37:53.476Z,3.67
2019-03-03T11:40:25.040Z,4.85
2019-03-03T11:43:11.655Z,3.77
2019-03-03T11:45:41.563Z,1.97
2019-03-03T11:48:19.099Z,5.40
2019-03-03T11:51:00.963Z,3.07
2019-03-03T11:53:33.861Z,2.67
2019-03-03T11:56:06.840Z,3.67
2019-03-03T11:58:53.180Z,4.43
2019-03-03T12:01:27.332Z,4.27
2019-03-03T12:03:57.169Z,3.77
2019-03-03T12:06:29.788Z,3.77
2019-03-03T12:09:11.618Z,4.40
2019-03-03T12:11:41.455Z,6.43
2019-03-03T12:14:19.736Z,6.43
2019-03-03T12:17:04.637Z,5.00
2019-03-03T12:19:34.634Z,6.63
2019-03-03T12:22:04.593Z,5.20
2019-03-03T12:24:34.522Z,4.73
2019-03-03T12:27:04.485Z,5.23
2019-03-03T12:29:34.363Z,4.57
2019-03-03T12:32:10.572Z,3.23
2019-03-03T12:34:43.566Z,5.83
2019-03-03T12:37:13.412Z,6.83
2019-03-03T12:39:48.996Z,3.93
2019-03-03T12:42:18.890Z,5.37
2019-03-03T12:44:48.836Z,6.30
2019-03-03T12:47:21.360Z,4.00
2019-03-03T12:49:53.732Z,5.00
2019-03-03T12:52:23.610Z,5.00
2019-03-03T12:54:56.287Z,5.10
2019-03-03T12:57:26.166Z,8.55
2019-03-03T13:00:12.777Z,4.40
2019-03-03T13:02:42.653Z,5.03
2019-03-03T13:05:12.611Z,6.63
2019-03-03T13:07:45.423Z,6.83
2019-03-03T13:10:17.787Z,7.47
2019-03-03T13:12:50.681Z,8.30
2019-03-03T13:15:20.583Z,11.40
2019-03-03T13:17:53.075Z,9.48
2019-03-03T13:20:25.708Z,8.50
2019-03-03T13:22:55.608Z,5.20
2019-03-03T13:25:34.759Z,5.77
2019-03-03T13:28:05.391Z,7.80
2019-03-03T13:30:44.070Z,12.40
2019-03-03T13:33:16.723Z,6.43
2019-03-03T13:35:46.677Z,7.87
2019-03-03T13:38:16.602Z,9.18
2019-03-03T13:40:49.469Z,9.53
2019-03-03T13:43:17.639Z,9.03
2019-03-03T13:45:45.999Z,10.73
2019-03-03T13:48:14.877Z,18.20
2019-03-03T13:50:43.159Z,7.97
2019-03-03T13:53:11.418Z,12.67
2019-03-03T13:55:39.687Z,10.53
2019-03-03T13:58:07.993Z,12.57
2019-03-03T14:00:36.221Z,9.20
2019-03-03T14:03:04.580Z,5.83
2019-03-03T14:05:32.797Z,11.13
2019-03-03T14:08:01.532Z,14.80
2019-03-03T14:10:29.811Z,10.90
2019-03-03T14:12:57.943Z,11.20
2019-03-03T14:15:26.179Z,12.55
2019-03-03T14:17:54.395Z,16.83
2019-03-03T14:20:23.047Z,19.57
2019-03-03T14:22:51.937Z,15.27
2019-03-03T14:25:20.141Z,20.97
2019-03-03T14:27:48.441Z,20.60
2019-03-03T14:30:20.573Z,22.50
2019-03-03T14:32:48.901Z,17.03
2019-03-03T14:35:17.171Z,21.10
2019-03-03T14:37:45.371Z,20.90
2019-03-03T14:40:14.953Z,19.87
2019-03-03T14:42:43.225Z,23.10
2019-03-03T14:45:12.637Z,18.00
2019-03-03T14:47:40.826Z,15.13
2019-03-03T14:50:10.502Z,14.83
2019-03-03T14:52:38.721Z,16.77
2019-03-03T14:55:08.609Z,16.03
2019-03-03T14:57:36.751Z,24.50
2019-03-03T15:00:06.519Z,18.13
2019-03-03T15:02:34.667Z,13.48
2019-03-03T15:05:02.889Z,16.17
2019-03-03T15:07:31.086Z,13.23
2019-03-03T15:09:59.389Z,12.87
2019-03-03T15:12:28.325Z,17.07
2019-03-03T15:14:56.598Z,13.30
2019-03-03T15:17:24.838Z,12.30
2019-03-03T15:19:52.984Z,24.50
2019-03-03T15:22:21.163Z,22.57
2019-03-03T15:24:49.436Z,17.55
2019-03-03T15:27:18.024Z,19.63
2019-03-03T15:29:46.396Z,18.77
2019-03-03T15:32:14.663Z,20.40
2019-03-03T15:34:42.871Z,18.50
2019-03-03T15:37:13.712Z,22.13
2019-03-03T15:39:41.973Z,16.50
2019-03-03T15:42:10.313Z,19.37
2019-03-03T15:44:38.440Z,12.63
2019-03-03T15:47:06.638Z,14.33
2019-03-03T15:49:34.876Z,14.03
2019-03-03T15:52:02.995Z,21.83
2019-03-03T15:54:32.687Z,31.93
2019-03-03T15:57:00.927Z,16.87
2019-03-03T15:59:29.175Z,15.90
2019-03-03T16:01:57.372Z,19.57
2019-03-03T16:04:25.598Z,15.67
2019-03-03T16:06:53.736Z,15.47
2019-03-03T16:09:21.946Z,17.37
2019-03-03T16:11:50.099Z,15.10
2019-03-03T16:14:18.281Z,23.83
2019-03-03T16:16:46.628Z,17.87
2019-03-03T16:19:15.501Z,22.10
2019-03-03T16:21:43.788Z,19.63
2019-03-03T16:24:12.011Z,19.07
2019-03-03T16:26:40.223Z,19.93
2019-03-03T16:29:08.471Z,14.73
2019-03-03T16:31:36.619Z,17.97
2019-03-03T16:34:04.762Z,19.20
2019-03-03T16:36:32.919Z,22.32
2019-03-03T16:39:01.119Z,16.23
2019-03-03T16:41:29.310Z,21.73
2019-03-03T16:43:59.082Z,22.90
2019-03-03T16:46:27.190Z,21.70
2019-03-03T16:48:55.419Z,16.30
2019-03-03T16:51:24.255Z,24.27
2019-03-03T16:53:52.484Z,22.27
2019-03-03T16:56:20.681Z,16.00
2019-03-03T16:58:48.893Z,14.90
2019-03-03T17:01:17.031Z,15.13
2019-03-03T17:03:45.179Z,15.63
2019-03-03T17:06:13.318Z,13.47
2019-03-03T17:08:41.533Z,17.17
2019-03-03T17:11:09.686Z,14.33
2019-03-03T17:13:37.879Z,19.10
2019-03-03T17:16:06.659Z,12.23
2019-03-03T17:18:34.849Z,19.37
2019-03-03T17:21:03.012Z,18.03
2019-03-03T17:23:31.202Z,18.50
2019-03-03T17:25:59.876Z,16.42
2019-03-03T17:28:28.205Z,23.07
2019-03-03T17:30:56.414Z,21.77
2019-03-03T17:33:24.674Z,20.77
2019-03-03T17:35:52.831Z,19.80
2019-03-03T17:38:21.081Z,15.37
2019-03-03T17:40:49.330Z,14.87
2019-03-03T17:43:17.582Z,10.77
2019-03-03T17:45:45.697Z,17.62
2019-03-03T17:48:13.898Z,10.43
2019-03-03T17:50:42.111Z,13.13
2019-03-03T17:53:10.272Z,17.60
2019-03-03T17:55:38.390Z,17.43
2019-03-03T17:58:06.627Z,14.55
2019-03-03T18:00:45.660Z,15.43
2019-03-03T18:03:13.792Z,8.87
2019-03-03T18:05:42.024Z,17.10
2019-03-03T18:08:10.226Z,13.07
2019-03-03T18:10:38.485Z,12.97
2019-03-03T18:13:06.759Z,10.90
2019-03-03T18:15:35.000Z,10.73
2019-03-03T18:18:03.206Z,7.87
2019-03-03T18:20:31.567Z,13.37
2019-03-03T18:22:59.806Z,11.77
2019-03-03T18:25:28.011Z,10.55
2019-03-03T18:27:56.154Z,13.88
2019-03-03T18:30:27.962Z,11.67
2019-03-03T18:32:56.324Z,7.43
2019-03-03T18:35:24.574Z,13.30
2019-03-03T18:37:52.941Z,9.03
2019-03-03T18:40:21.921Z,10.23
2019-03-03T18:42:50.279Z,10.90
2019-03-03T18:45:19.960Z,9.50
2019-03-03T18:47:49.508Z,17.63
2019-03-03T18:50:27.924Z,11.13
2019-03-03T18:52:56.111Z,8.47
2019-03-03T18:55:24.346Z,14.17
2019-03-03T18:57:52.612Z,6.60
2019-03-03T19:00:22.838Z,10.95
2019-03-03T19:02:51.356Z,12.40
2019-03-03T19:05:19.970Z,13.30
2019-03-03T19:07:48.511Z,13.23
2019-03-03T19:10:18.166Z,9.50
2019-03-03T19:12:46.398Z,10.70
2019-03-03T19:15:15.669Z,8.27
2019-03-03T19:17:43.966Z,8.33
2019-03-03T19:20:18.840Z,10.33
2019-03-03T19:22:47.245Z,9.17
2019-03-03T19:25:15.483Z,10.10
2019-03-03T19:27:43.852Z,9.07
2019-03-03T19:32:49.268Z,10.20
2019-03-03T19:35:17.568Z,10.97
2019-03-03T19:37:45.767Z,20.50
2019-03-03T19:40:14.693Z,9.63
2019-03-03T19:42:42.891Z,8.57
2019-03-03T19:45:17.082Z,11.60
2019-03-03T19:47:51.746Z,9.55
2019-03-03T19:50:21.215Z,9.97
2019-03-03T19:52:53.409Z,9.98
2019-03-03T19:55:24.628Z,8.83
2019-03-03T19:57:52.881Z,8.55
2019-03-03T20:00:35.436Z,6.90
2019-03-03T20:02:58.094Z,7.58
2019-03-03T20:05:26.386Z,9.30
2019-03-03T20:08:00.608Z,8.80
2019-03-03T20:10:26.478Z,8.83
2019-03-03T20:12:58.656Z,11.37
2019-03-03T20:15:29.058Z,13.47
2019-03-03T20:18:00.472Z,8.77
2019-03-03T20:20:28.714Z,8.10
2019-03-03T20:22:56.957Z,10.43
2019-03-03T20:25:25.346Z,5.10
2019-03-03T20:27:53.620Z,9.40
2019-03-03T20:30:22.371Z,6.57
2019-03-03T20:32:55.132Z,7.77
2019-03-03T20:35:25.128Z,8.27
2019-03-03T20:37:55.483Z,9.20
2019-03-03T20:40:25.263Z,7.23
2019-03-03T20:42:54.044Z,5.23
2019-03-03T20:45:23.741Z,5.87
2019-03-03T20:47:51.979Z,6.67
2019-03-03T20:50:20.739Z,7.10
2019-03-03T20:52:49.163Z,22.33
2019-03-03T20:55:18.864Z,7.43
2019-03-03T20:57:47.116Z,6.67
2019-03-03T21:00:19.385Z,4.70
2019-03-03T21:02:47.644Z,5.83
2019-03-03T21:05:15.937Z,8.57
2019-03-03T21:07:50.835Z,10.20
2019-03-03T21:10:15.529Z,8.43
2019-03-03T21:12:43.778Z,6.80
2019-03-03T21:15:12.354Z,5.80
2019-03-03T21:17:40.642Z,9.10
2019-03-03T21:20:19.609Z,5.55
2019-03-03T21:22:48.775Z,5.70
2019-03-03T21:25:17.455Z,6.30
2019-03-03T21:27:45.746Z,8.20
2019-03-03T21:30:15.582Z,9.58
2019-03-03T21:32:43.774Z,6.53
2019-03-03T21:35:12.305Z,6.67
2019-03-03T21:37:40.561Z,6.43
2019-03-03T21:40:10.266Z,5.33
2019-03-03T21:42:38.743Z,7.13
2019-03-03T21:45:08.546Z,13.00
2019-03-03T21:47:38.311Z,8.57
2019-03-03T21:50:08.227Z,16.90
2019-03-03T21:52:36.519Z,8.33
2019-03-03T21:55:05.451Z,10.07
2019-03-03T21:57:33.582Z,7.87
2019-03-03T22:00:01.788Z,7.73
2019-03-03T22:02:29.973Z,7.00
2019-03-03T22:05:10.099Z,4.87
2019-03-03T22:07:41.294Z,5.37
2019-03-03T22:10:09.490Z,5.47
2019-03-03T22:12:38.443Z,3.47
2019-03-03T22:15:08.159Z,5.53
2019-03-03T22:17:36.431Z,7.93
2019-03-03T22:20:06.085Z,8.17
2019-03-03T22:22:34.347Z,6.43
2019-03-03T22:25:02.575Z,8.73
2019-03-03T22:27:32.469Z,4.90
2019-03-03T22:30:00.581Z,5.60
2019-03-03T22:32:32.318Z,5.13
2019-03-03T22:35:07.993Z,5.30
2019-03-03T22:37:36.127Z,7.30
2019-03-03T22:40:11.491Z,4.90
2019-03-03T22:42:39.696Z,3.77
2019-03-03T22:45:09.953Z,3.93
2019-03-03T22:47:40.154Z,6.20
2019-03-03T22:50:09.522Z,8.50
2019-03-03T22:52:37.685Z,7.10
2019-03-03T22:55:08.873Z,4.67
2019-03-03T22:57:37.096Z,9.33
2019-03-03T23:00:14.100Z,4.90
2019-03-03T23:02:43.809Z,4.87
2019-03-03T23:05:20.365Z,4.83
2019-03-03T23:07:56.292Z,5.23
2019-03-03T23:10:25.949Z,6.10
2019-03-03T23:12:57.268Z,6.53
2019-03-03T23:15:27.095Z,7.10
2019-03-03T23:17:59.658Z,5.10
2019-03-03T23:20:32.137Z,6.37
2019-03-03T23:23:07.334Z,6.77
2019-03-03T23:25:57.898Z,6.85
2019-03-03T23:28:29.226Z,6.93
2019-03-03T23:31:02.080Z,4.67
2019-03-03T23:33:30.449Z,4.43
2019-03-03T23:35:58.620Z,4.55
2019-03-03T23:38:31.437Z,6.27
2019-03-03T23:41:01.821Z,6.73
2019-03-03T23:43:32.737Z,3.83
2019-03-03T23:46:01.042Z,10.07
2019-03-03T23:48:32.307Z,5.30
2019-03-03T23:51:02.480Z,5.63
2019-03-03T23:53:33.325Z,7.27
2019-03-03T23:56:03.366Z,5.80
2019-03-03T23:58:34.351Z,4.50
